Time;durP1;ratioP1;P1;durP2;ratioP2;P2;SDS_P1;SDS_P2;PMS_P1;PMS_P2;Temp;Humidity;BMP_temperature;BMP_pressure;BME280_temperature;BME280_humidity;BME280_pressure;Samples;Min_cycle;Max_cycle;Signal;HPM_P1;HPM_P2
2022/04/13 00:00:29;;;;;;;4.38;1.00;;;15.00;90.90;;;;;;4996387;28;20080;-87
2022/04/13 00:02:55;;;;;;;6.63;1.23;;;15.00;90.90;;;;;;4996522;28;20030;-87
2022/04/13 00:05:21;;;;;;;8.05;1.10;;;15.10;91.00;;;;;;4996546;28;20037;-87
2022/04/13 00:07:46;;;;;;;12.20;1.33;;;15.10;91.00;;;;;;4993017;28;20026;-86
2022/04/13 00:10:12;;;;;;;4.63;1.42;;;15.10;91.00;;;;;;4996804;28;20018;-87
2022/04/13 00:12:38;;;;;;;8.32;1.33;;;15.10;91.00;;;;;;4991609;28;20041;-87
2022/04/13 00:15:05;;;;;;;8.88;1.48;;;15.10;91.00;;;;;;4996801;28;20404;-86
2022/04/13 00:17:31;;;;;;;6.72;1.63;;;15.20;91.00;;;;;;4996395;28;20477;-87
2022/04/13 00:19:58;;;;;;;7.00;1.48;;;15.20;91.10;;;;;;4995695;28;20034;-87
2022/04/13 00:22:24;;;;;;;12.13;2.03;;;15.20;91.20;;;;;;4995489;28;20440;-87
2022/04/13 00:24:49;;;;;;;5.43;1.33;;;15.10;91.20;;;;;;4996075;28;20026;-87
2022/04/13 00:27:15;;;;;;;10.43;1.50;;;15.10;91.30;;;;;;4995555;28;20514;-87
2022/04/13 00:29:40;;;;;;;7.47;1.40;;;15.10;91.40;;;;;;4995054;28;20022;-86
2022/04/13 00:32:07;;;;;;;13.20;2.35;;;15.00;91.50;;;;;;5011848;28;20054;-87
2022/04/13 00:34:32;;;;;;;7.43;1.73;;;15.00;91.70;;;;;;5012933;28;20036;-87
2022/04/13 00:36:58;;;;;;;6.13;1.25;;;14.90;91.80;;;;;;4983044;28;20401;-87
2022/04/13 00:39:25;;;;;;;6.68;2.08;;;14.90;91.90;;;;;;4995104;28;20048;-87
2022/04/13 00:42:02;;;;;;;8.38;1.90;;;14.80;92.00;;;;;;4996303;28;20030;-87
2022/04/13 00:44:29;;;;;;;7.50;2.00;;;14.80;92.10;;;;;;4985866;28;20064;-87
2022/04/13 00:46:56;;;;;;;5.15;1.50;;;14.80;92.20;;;;;;4995540;28;20034;-87
2022/04/13 00:49:23;;;;;;;8.35;1.55;;;14.70;92.20;;;;;;4995182;28;20033;-87
2022/04/13 00:51:50;;;;;;;6.50;1.48;;;14.70;92.20;;;;;;4995746;28;20037;-87
2022/04/13 00:54:18;;;;;;;7.82;1.80;;;14.60;92.30;;;;;;5011053;28;20030;-87
2022/04/13 00:56:47;;;;;;;7.50;1.77;;;14.70;92.40;;;;;;4996150;28;20038;-87
2022/04/13 00:59:14;;;;;;;7.25;1.58;;;14.60;92.40;;;;;;4996092;28;20370;-87
2022/04/13 01:01:47;;;;;;;9.77;1.63;;;14.60;92.50;;;;;;4995539;28;20045;-87
2022/04/13 01:04:13;;;;;;;8.15;1.75;;;14.50;92.60;;;;;;5001172;28;20044;-87
2022/04/13 01:06:40;;;;;;;9.23;1.83;;;14.40;92.80;;;;;;5011463;28;20045;-87
2022/04/13 01:09:05;;;;;;;9.73;1.95;;;14.40;92.90;;;;;;4992075;28;20026;-87
2022/04/13 01:11:31;;;;;;;10.00;1.40;;;14.30;93.00;;;;;;4995349;28;20033;-87
2022/04/13 01:13:57;;;;;;;9.90;1.40;;;14.30;93.20;;;;;;4994988;28;20025;-88
2022/04/13 01:16:24;;;;;;;6.72;1.70;;;14.20;93.30;;;;;;4988473;28;20041;-88
2022/04/13 01:18:50;;;;;;;7.82;2.20;;;14.20;93.50;;;;;;4995321;28;20030;-88
2022/04/13 01:21:19;;;;;;;9.30;1.88;;;14.10;93.70;;;;;;4995914;28;20129;-88
2022/04/13 01:23:45;;;;;;;5.78;1.60;;;14.00;93.90;;;;;;4992005;28;20390;-87
2022/04/13 01:26:11;;;;;;;9.63;1.70;;;13.90;94.20;;;;;;4986774;28;20053;-88
2022/04/13 01:28:37;;;;;;;11.18;2.45;;;13.90;94.40;;;;;;4995271;28;20021;-88
2022/04/13 01:31:04;;;;;;;10.10;2.00;;;13.90;94.60;;;;;;4994783;28;20077;-88
2022/04/13 01:33:30;;;;;;;11.35;2.20;;;13.80;94.80;;;;;;4991784;28;20026;-88
2022/04/13 01:36:02;;;;;;;9.05;2.50;;;13.80;95.00;;;;;;4989658;28;20045;-88
2022/04/13 01:38:31;;;;;;;11.55;2.33;;;13.80;95.20;;;;;;4995412;28;20053;-88
2022/04/13 01:40:57;;;;;;;5.43;1.90;;;13.70;95.40;;;;;;4992726;28;20497;-88
2022/04/13 01:43:24;;;;;;;7.20;2.05;;;13.70;95.70;;;;;;4998165;28;20167;-88
2022/04/13 01:45:50;;;;;;;7.45;2.13;;;13.60;95.90;;;;;;4998482;28;20504;-88
2022/04/13 01:48:18;;;;;;;11.95;2.58;;;13.60;96.10;;;;;;4997260;28;20090;-88
2022/04/13 01:50:44;;;;;;;9.93;3.03;;;13.50;96.40;;;;;;4995829;28;20047;-88
2022/04/13 01:53:09;;;;;;;11.60;3.08;;;13.50;96.60;;;;;;4999483;28;20053;-88
2022/04/13 01:55:35;;;;;;;9.43;2.53;;;13.50;96.80;;;;;;4998094;28;20040;-88
2022/04/13 01:58:00;;;;;;;7.85;2.15;;;13.50;96.90;;;;;;4991777;28;20056;-88
2022/04/13 02:00:26;;;;;;;10.38;3.08;;;13.50;97.00;;;;;;4998681;28;20409;-88
2022/04/13 02:02:53;;;;;;;9.40;2.35;;;13.50;97.20;;;;;;4996130;28;20268;-88
2022/04/13 02:05:19;;;;;;;7.18;2.65;;;13.40;97.40;;;;;;4997461;28;20025;-88
2022/04/13 02:07:45;;;;;;;8.57;3.38;;;13.50;97.70;;;;;;4998446;28;20052;-88
2022/04/13 02:10:10;;;;;;;11.65;3.60;;;13.40;98.00;;;;;;4998208;28;20030;-88
2022/04/13 02:12:37;;;;;;;10.70;3.58;;;13.40;98.20;;;;;;5000272;28;20488;-88
2022/04/13 02:15:06;;;;;;;11.05;3.88;;;13.40;98.50;;;;;;4998630;28;20054;-89
2022/04/13 02:17:32;;;;;;;15.82;4.43;;;13.40;98.80;;;;;;4998099;28;20034;-88
2022/04/13 02:19:57;;;;;;;9.70;3.33;;;13.50;99.10;;;;;;4996335;28;20014;-88
2022/04/13 02:22:23;;;;;;;9.18;3.35;;;13.40;99.40;;;;;;4997094;28;20037;-88
2022/04/13 02:24:49;;;;;;;12.40;4.05;;;13.40;99.70;;;;;;4999788;28;20113;-87
2022/04/13 02:27:14;;;;;;;9.95;4.03;;;13.40;99.90;;;;;;4993833;28;20061;-88
2022/04/13 02:29:40;;;;;;;11.48;4.43;;;13.30;99.90;;;;;;4998799;28;20030;-88
2022/04/13 02:32:06;;;;;;;15.98;4.85;;;13.30;99.90;;;;;;4987032;28;20022;-88
2022/04/13 02:34:32;;;;;;;12.95;4.85;;;13.30;99.90;;;;;;4997177;28;20389;-87
2022/04/13 02:36:58;;;;;;;11.13;4.15;;;13.30;99.90;;;;;;5012550;28;20497;-88
2022/04/13 02:39:24;;;;;;;11.88;5.25;;;13.20;99.90;;;;;;4998326;28;20034;-87
2022/04/13 02:41:49;;;;;;;14.43;5.30;;;13.20;99.90;;;;;;4997132;28;20479;-88
2022/04/13 02:44:15;;;;;;;12.63;4.80;;;13.20;99.90;;;;;;4997614;28;20021;-88
2022/04/13 02:46:41;;;;;;;11.05;4.88;;;13.20;99.90;;;;;;4996919;28;20132;-88
2022/04/13 02:49:07;;;;;;;13.30;5.50;;;13.10;99.90;;;;;;4993193;28;20035;-88
2022/04/13 02:51:33;;;;;;;15.55;5.28;;;13.10;99.90;;;;;;4997186;28;20030;-87
2022/04/13 02:53:59;;;;;;;11.95;5.55;;;13.10;99.90;;;;;;5000073;28;20026;-87
2022/04/13 02:56:25;;;;;;;11.00;5.68;;;13.00;99.90;;;;;;4994974;28;20045;-88
2022/04/13 02:58:50;;;;;;;11.68;5.93;;;13.00;99.90;;;;;;4998165;28;20087;-87
2022/04/13 03:01:16;;;;;;;16.25;6.65;;;13.00;99.90;;;;;;5003333;28;20088;-87
2022/04/13 03:03:41;;;;;;;16.45;6.38;;;13.00;99.90;;;;;;4997388;28;20026;-87
2022/04/13 03:06:07;;;;;;;14.95;7.53;;;12.90;99.90;;;;;;4994986;28;20033;-87
2022/04/13 03:08:33;;;;;;;15.05;6.68;;;12.90;99.90;;;;;;4995656;28;20388;-87
2022/04/13 03:10:58;;;;;;;12.52;6.22;;;12.90;99.90;;;;;;4993443;28;20030;-87
2022/04/13 03:13:24;;;;;;;16.15;7.20;;;12.80;99.90;;;;;;4998094;28;20053;-87
2022/04/13 03:15:50;;;;;;;16.50;7.03;;;12.80;99.90;;;;;;4992132;28;20030;-87
2022/04/13 03:18:15;;;;;;;13.93;7.70;;;12.70;99.90;;;;;;4997900;28;20041;-87
2022/04/13 03:20:41;;;;;;;12.63;7.55;;;12.70;99.90;;;;;;4997622;28;20033;-86
2022/04/13 03:23:06;;;;;;;11.38;7.00;;;12.70;99.90;;;;;;4998793;28;20030;-87
2022/04/13 03:25:33;;;;;;;20.25;8.27;;;12.60;99.90;;;;;;4997343;28;20125;-87
2022/04/13 03:27:59;;;;;;;12.93;7.80;;;12.60;99.90;;;;;;4998121;28;20025;-88
2022/04/13 03:30:24;;;;;;;16.33;7.72;;;12.60;99.90;;;;;;4991882;28;20120;-87
2022/04/13 03:32:51;;;;;;;14.85;7.70;;;12.60;99.90;;;;;;4998046;28;20034;-87
2022/04/13 03:35:17;;;;;;;14.57;8.35;;;12.50;99.90;;;;;;5001469;28;20541;-87
2022/04/13 03:37:42;;;;;;;13.85;7.40;;;12.50;99.90;;;;;;4992450;28;20058;-87
2022/04/13 03:40:10;;;;;;;15.48;8.13;;;12.40;99.90;;;;;;4999818;28;20022;-88
2022/04/13 03:42:36;;;;;;;16.55;8.27;;;12.30;99.90;;;;;;4999300;28;20034;-87
2022/04/13 03:45:08;;;;;;;17.70;8.77;;;12.30;99.90;;;;;;5001231;28;20022;-87
2022/04/13 03:47:34;;;;;;;18.52;7.90;;;12.20;99.90;;;;;;4991965;28;20036;-88
2022/04/13 03:49:59;;;;;;;19.88;8.57;;;12.20;99.90;;;;;;4997906;28;20034;-87
2022/04/13 03:52:26;;;;;;;13.98;7.20;;;12.10;99.90;;;;;;4999190;28;20030;-87
2022/04/13 03:54:52;;;;;;;14.02;7.97;;;12.00;99.90;;;;;;4999160;28;20018;-87
2022/04/13 03:57:17;;;;;;;13.88;7.82;;;12.00;99.90;;;;;;4998397;28;20040;-87
2022/04/13 03:59:43;;;;;;;13.38;7.90;;;11.90;99.90;;;;;;4999648;28;20046;-88
2022/04/13 04:02:08;;;;;;;16.80;7.90;;;11.80;99.90;;;;;;5012782;28;20534;-87
2022/04/13 04:04:34;;;;;;;13.90;7.45;;;11.70;99.90;;;;;;4998425;28;20465;-84
2022/04/13 04:07:00;;;;;;;18.80;8.55;;;11.70;99.90;;;;;;5012820;28;20630;-87
2022/04/13 04:09:25;;;;;;;21.00;8.43;;;11.60;99.90;;;;;;4998107;28;20029;-87
2022/04/13 04:11:51;;;;;;;17.27;9.13;;;11.50;99.90;;;;;;5014667;28;20026;-87
2022/04/13 04:14:16;;;;;;;17.50;8.43;;;11.40;99.90;;;;;;4997472;28;20026;-87
2022/04/13 04:16:42;;;;;;;16.88;8.95;;;11.40;99.90;;;;;;5013802;28;20508;-87
2022/04/13 04:19:08;;;;;;;13.07;8.23;;;11.30;99.90;;;;;;5013371;28;20065;-87
2022/04/13 04:21:33;;;;;;;18.30;8.90;;;11.30;99.90;;;;;;4994723;28;20029;-87
2022/04/13 04:23:59;;;;;;;13.98;7.60;;;11.30;99.90;;;;;;5013278;28;20034;-87
2022/04/13 04:26:24;;;;;;;15.20;8.35;;;11.30;99.90;;;;;;4996260;28;20148;-87
2022/04/13 04:28:50;;;;;;;11.05;7.28;;;11.20;99.90;;;;;;4992843;28;20050;-87
2022/04/13 04:31:49;;;;;;;20.80;8.25;;;11.10;99.90;;;;;;5010333;28;20026;-87
2022/04/13 04:34:04;;;;;;;17.15;8.80;;;11.10;99.90;;;;;;5012219;28;20541;-87
2022/04/13 04:36:32;;;;;;;20.92;8.45;;;11.00;99.90;;;;;;4996361;28;20038;-86
2022/04/13 04:38:57;;;;;;;15.00;8.38;;;10.90;99.90;;;;;;4994263;28;20053;-86
2022/04/13 04:41:23;;;;;;;15.45;9.05;;;10.90;99.90;;;;;;4994660;28;20026;-87
2022/04/13 04:43:48;;;;;;;16.15;9.05;;;10.90;99.90;;;;;;4992428;28;20037;-87
2022/04/13 04:46:14;;;;;;;13.68;8.90;;;10.90;99.90;;;;;;4995166;28;20113;-87
2022/04/13 04:48:42;;;;;;;21.30;8.40;;;10.90;99.90;;;;;;4994924;28;20085;-87
2022/04/13 04:51:08;;;;;;;13.32;8.90;;;10.80;99.90;;;;;;4996006;28;20029;-87
2022/04/13 04:53:34;;;;;;;13.25;7.97;;;10.80;99.90;;;;;;4992403;28;20025;-85
2022/04/13 04:55:59;;;;;;;14.82;8.82;;;10.80;99.90;;;;;;4996616;28;20470;-85
2022/04/13 04:58:26;;;;;;;17.58;9.07;;;10.80;99.90;;;;;;4991877;28;20022;-85
2022/04/13 05:00:52;;;;;;;15.70;9.70;;;10.80;99.90;;;;;;4991814;28;20383;-85
2022/04/13 05:03:18;;;;;;;17.23;10.63;;;10.80;99.90;;;;;;5018743;28;20018;-85
2022/04/13 05:05:43;;;;;;;21.88;10.25;;;10.70;99.90;;;;;;4995511;28;20033;-85
2022/04/13 05:08:09;;;;;;;18.60;10.85;;;10.70;99.90;;;;;;4995528;28;20040;-85
2022/04/13 05:10:34;;;;;;;20.30;10.50;;;10.60;99.90;;;;;;4994792;28;20026;-85
2022/04/13 05:13:02;;;;;;;23.30;10.05;;;10.60;99.90;;;;;;4988053;28;20117;-86
2022/04/13 05:15:28;;;;;;;15.90;9.15;;;10.70;99.90;;;;;;4992052;28;20117;-85
2022/04/13 05:17:53;;;;;;;23.92;10.00;;;10.70;99.90;;;;;;4992138;28;20113;-86
2022/04/13 05:20:19;;;;;;;22.13;9.25;;;10.70;99.90;;;;;;4998184;28;20022;-86
2022/04/13 05:22:44;;;;;;;19.17;9.98;;;10.70;99.90;;;;;;4997546;28;20413;-86
2022/04/13 05:25:15;;;;;;;17.58;9.55;;;10.80;99.90;;;;;;4992616;28;20057;-86
2022/04/13 05:27:42;;;;;;;17.85;10.00;;;10.80;99.90;;;;;;4997931;28;20026;-86
2022/04/13 05:30:09;;;;;;;18.23;10.02;;;10.90;99.90;;;;;;4995505;28;20104;-86
2022/04/13 05:32:47;;;;;;;24.40;10.57;;;11.00;99.90;;;;;;4993019;28;20485;-87
2022/04/13 05:35:13;;;;;;;19.35;10.15;;;11.10;99.90;;;;;;4997038;28;20037;-86
2022/04/13 05:37:38;;;;;;;22.02;11.35;;;11.20;99.90;;;;;;4998269;28;20025;-86
2022/04/13 05:40:05;;;;;;;18.73;11.52;;;11.30;99.90;;;;;;4993934;28;20038;-86
2022/04/13 05:42:31;;;;;;;19.92;10.85;;;11.40;99.90;;;;;;4998484;28;20061;-86
2022/04/13 05:44:58;;;;;;;22.08;10.95;;;11.40;99.90;;;;;;4998641;28;20117;-86
2022/04/13 05:47:24;;;;;;;14.98;9.32;;;11.50;99.90;;;;;;4997764;28;20032;-86
2022/04/13 05:49:49;;;;;;;25.13;10.30;;;11.60;99.90;;;;;;4998517;28;20022;-85
2022/04/13 05:52:15;;;;;;;20.67;10.48;;;11.70;99.90;;;;;;4997055;28;20080;-85
2022/04/13 05:54:41;;;;;;;20.48;11.43;;;11.70;99.90;;;;;;4998677;28;20069;-86
2022/04/13 05:57:08;;;;;;;20.92;10.35;;;11.70;99.90;;;;;;4997551;28;20176;-86
2022/04/13 05:59:34;;;;;;;17.83;10.23;;;11.80;99.90;;;;;;4998132;28;20026;-85
2022/04/13 06:02:00;;;;;;;17.77;10.65;;;11.90;99.90;;;;;;4998486;28;20033;-86
2022/04/13 06:04:26;;;;;;;23.98;11.48;;;12.00;99.90;;;;;;4997748;28;20030;-86
2022/04/13 06:06:52;;;;;;;19.88;9.93;;;12.10;99.90;;;;;;4997431;28;20501;-86
2022/04/13 06:09:17;;;;;;;16.38;10.82;;;12.20;99.90;;;;;;4998781;28;20472;-86
2022/04/13 06:11:43;;;;;;;20.55;11.23;;;12.40;99.90;;;;;;4998396;28;20109;-87
2022/04/13 06:14:08;;;;;;;23.00;11.15;;;12.50;99.90;;;;;;5029794;28;20045;-87
2022/04/13 06:16:34;;;;;;;20.02;12.40;;;12.70;99.90;;;;;;4998939;28;20061;-88
2022/04/13 06:18:59;;;;;;;19.58;10.55;;;12.80;99.90;;;;;;4998169;28;20030;-87
2022/04/13 06:21:25;;;;;;;18.83;11.15;;;12.90;99.90;;;;;;4990486;28;20030;-88
2022/04/13 06:23:50;;;;;;;16.17;10.32;;;13.00;99.90;;;;;;4991379;28;20029;-88
2022/04/13 06:26:17;;;;;;;15.88;10.15;;;13.20;99.90;;;;;;4999235;28;20501;-88
2022/04/13 06:28:43;;;;;;;18.38;11.23;;;13.30;99.90;;;;;;4995818;28;20184;-86
2022/04/13 06:31:09;;;;;;;21.35;10.52;;;13.40;99.90;;;;;;4997717;28;20502;-86
2022/04/13 06:33:34;;;;;;;25.80;11.00;;;13.60;99.90;;;;;;4993198;28;20022;-86
2022/04/13 06:36:01;;;;;;;19.13;9.90;;;13.70;99.90;;;;;;4997207;28;20092;-86
2022/04/13 06:38:26;;;;;;;18.90;10.23;;;13.90;99.90;;;;;;5013203;28;20022;-86
2022/04/13 06:40:52;;;;;;;18.05;9.75;;;14.00;99.90;;;;;;4985646;28;20053;-86
2022/04/13 06:43:17;;;;;;;18.05;10.15;;;14.10;99.90;;;;;;4990325;28;20086;-86
2022/04/13 06:45:43;;;;;;;15.68;10.45;;;14.10;99.90;;;;;;4997605;28;20124;-86
2022/04/13 06:48:09;;;;;;;15.80;9.23;;;14.20;99.90;;;;;;4998410;28;20084;-86
2022/04/13 06:50:35;;;;;;;22.40;10.90;;;14.20;99.90;;;;;;4996049;28;20041;-86
2022/04/13 06:53:01;;;;;;;20.83;11.00;;;14.10;99.90;;;;;;4997557;28;20117;-85
2022/04/13 06:55:26;;;;;;;21.60;11.32;;;14.10;99.90;;;;;;4996735;28;20171;-85
2022/04/13 06:57:52;;;;;;;16.50;10.27;;;14.10;99.90;;;;;;4995940;28;20076;-86
2022/04/13 07:00:17;;;;;;;21.05;11.32;;;14.10;99.90;;;;;;4995996;28;20584;-86
2022/04/13 07:02:43;;;;;;;19.90;11.23;;;14.10;99.90;;;;;;4997724;28;20026;-87
2022/04/13 07:05:09;;;;;;;19.10;11.98;;;14.10;99.90;;;;;;4997877;28;20145;-87
2022/04/13 07:07:35;;;;;;;17.38;11.15;;;14.00;99.90;;;;;;5014256;28;20028;-87
2022/04/13 07:10:03;;;;;;;18.25;11.75;;;14.10;99.90;;;;;;4993943;28;20029;-88
2022/04/13 07:12:36;;;;;;;22.80;12.93;;;14.20;99.90;;;;;;4998155;28;20060;-88
2022/04/13 07:15:03;;;;;;;19.02;12.75;;;14.30;99.90;;;;;;4997569;28;20017;-89
2022/04/13 07:17:29;;;;;;;19.23;12.07;;;14.40;99.90;;;;;;4997859;28;20083;-88
2022/04/13 07:19:55;;;;;;;21.15;13.80;;;14.40;99.90;;;;;;5007126;28;20030;-86
2022/04/13 07:22:21;;;;;;;18.05;12.43;;;14.40;99.90;;;;;;5014589;28;20340;-87
2022/04/13 07:24:46;;;;;;;21.70;12.85;;;14.50;99.90;;;;;;4995235;28;20045;-89
2022/04/13 07:27:12;;;;;;;25.90;14.98;;;14.70;99.90;;;;;;4997104;28;20025;-88
2022/04/13 07:29:37;;;;;;;23.60;13.45;;;14.80;99.90;;;;;;4997877;28;20107;-88
2022/04/13 07:32:03;;;;;;;19.35;13.60;;;14.80;99.90;;;;;;4997524;28;20026;-88
2022/04/13 07:34:29;;;;;;;21.00;12.82;;;14.80;99.90;;;;;;4995603;28;20022;-89
2022/04/13 07:36:54;;;;;;;20.10;12.55;;;14.70;99.90;;;;;;4997004;28;20049;-87
2022/04/13 07:39:20;;;;;;;22.95;13.70;;;14.70;99.90;;;;;;4997370;28;20029;-87
2022/04/13 07:41:45;;;;;;;23.90;15.35;;;14.70;99.90;;;;;;4996256;28;20604;-86
2022/04/13 07:44:12;;;;;;;21.75;13.73;;;14.60;99.90;;;;;;4996185;28;20033;-88
2022/04/13 07:46:37;;;;;;;23.50;14.50;;;14.60;99.90;;;;;;4993712;28;20014;-87
2022/04/13 07:49:05;;;;;;;19.75;13.07;;;14.60;99.90;;;;;;4995700;28;20556;-87
2022/04/13 07:51:31;;;;;;;20.17;12.85;;;14.70;99.90;;;;;;4996945;28;20033;-90
2022/04/13 07:53:56;;;;;;;23.40;13.63;;;14.80;99.90;;;;;;4997449;28;20029;-86
2022/04/13 07:56:22;;;;;;;22.25;13.88;;;15.00;99.90;;;;;;4992502;28;20049;-87
2022/04/13 07:58:48;;;;;;;21.15;13.90;;;15.10;99.90;;;;;;4990078;28;20026;-87
2022/04/13 08:01:14;;;;;;;18.08;13.50;;;15.20;99.90;;;;;;4985085;28;20080;-86
2022/04/13 08:03:40;;;;;;;19.90;12.27;;;15.30;99.90;;;;;;4994779;28;20160;-86
2022/04/13 08:06:07;;;;;;;22.70;13.45;;;15.40;99.90;;;;;;4995999;28;20181;-86
2022/04/13 08:08:32;;;;;;;18.02;11.85;;;15.50;99.90;;;;;;4996316;28;20018;-86
2022/04/13 08:10:58;;;;;;;15.88;10.38;;;15.60;99.90;;;;;;4995855;28;20052;-86
2022/04/13 08:13:23;;;;;;;18.48;9.68;;;15.70;99.90;;;;;;5013676;28;20033;-87
2022/04/13 08:15:49;;;;;;;17.35;9.63;;;15.80;99.90;;;;;;4993696;28;20040;-86
2022/04/13 08:18:14;;;;;;;15.25;10.02;;;15.70;99.90;;;;;;4996248;28;20057;-86
2022/04/13 08:20:40;;;;;;;20.95;9.85;;;15.70;99.90;;;;;;4995879;28;20061;-87
2022/04/13 08:23:05;;;;;;;19.50;9.98;;;15.70;99.90;;;;;;5013557;28;20037;-86
2022/04/13 08:25:31;;;;;;;19.63;9.77;;;15.90;99.90;;;;;;4995332;28;20025;-87
2022/04/13 08:27:56;;;;;;;15.30;8.38;;;15.90;99.90;;;;;;4994006;28;20032;-86
2022/04/13 08:30:25;;;;;;;11.85;7.93;;;16.10;99.90;;;;;;4996692;28;20096;-86
2022/04/13 08:32:50;;;;;;;10.77;7.40;;;16.10;99.90;;;;;;4994899;28;20022;-86
2022/04/13 08:35:16;;;;;;;16.23;8.15;;;16.20;99.90;;;;;;4995008;28;20049;-86
2022/04/13 08:37:42;;;;;;;9.93;6.05;;;16.20;99.90;;;;;;4995403;28;20018;-86
2022/04/13 08:40:09;;;;;;;10.48;6.03;;;16.20;99.90;;;;;;4994208;28;20488;-86
2022/04/13 08:42:50;;;;;;;10.93;6.45;;;16.30;99.90;;;;;;4995274;28;20030;-86
2022/04/13 08:45:23;;;;;;;11.27;6.70;;;16.40;99.90;;;;;;4993125;28;20030;-86
2022/04/13 08:47:56;;;;;;;14.25;9.05;;;16.40;99.90;;;;;;4991310;28;20044;-86
2022/04/13 08:50:27;;;;;;;11.38;6.35;;;16.40;99.90;;;;;;5009406;28;20028;-86
2022/04/13 08:52:59;;;;;;;12.18;6.70;;;16.40;99.90;;;;;;5011385;28;20101;-86
2022/04/13 08:55:26;;;;;;;9.15;5.47;;;16.40;99.90;;;;;;5009435;28;20481;-86
2022/04/13 08:58:10;;;;;;;7.88;4.70;;;16.50;99.90;;;;;;5012103;28;20037;-86
2022/04/13 09:00:39;;;;;;;12.98;5.78;;;16.60;99.90;;;;;;5009934;28;20107;-86
2022/04/13 09:03:24;;;;;;;10.90;6.28;;;16.70;99.90;;;;;;5012661;28;20552;-86
2022/04/13 09:05:56;;;;;;;8.77;4.90;;;16.80;99.90;;;;;;4994159;28;20080;-86
2022/04/13 09:08:56;;;;;;;9.48;6.07;;;16.90;99.90;;;;;;4994635;28;20038;-86
2022/04/13 09:11:25;;;;;;;9.85;4.78;;;16.90;99.90;;;;;;4998496;28;20092;-85
2022/04/13 09:13:51;;;;;;;11.07;5.00;;;17.00;99.90;;;;;;4995638;28;20029;-86
2022/04/13 09:16:17;;;;;;;11.68;4.78;;;17.20;99.90;;;;;;4994893;28;20585;-86
2022/04/13 09:18:44;;;;;;;8.25;3.42;;;17.40;99.90;;;;;;4992964;28;20469;-86
2022/04/13 09:21:12;;;;;;;7.88;3.40;;;17.60;99.90;;;;;;4994474;28;20030;-85
2022/04/13 09:23:38;;;;;;;4.78;2.88;;;17.90;99.90;;;;;;5027178;28;20022;-86
2022/04/13 09:26:05;;;;;;;7.97;3.50;;;17.90;99.90;;;;;;4994393;28;20040;-86
2022/04/13 09:28:30;;;;;;;7.78;3.28;;;17.90;99.90;;;;;;4981474;28;20391;-86
2022/04/13 09:30:56;;;;;;;7.90;2.60;;;18.00;99.90;;;;;;4993524;28;20092;-86
2022/04/13 09:33:23;;;;;;;5.72;2.97;;;18.10;99.90;;;;;;4993022;28;20022;-86
2022/04/13 09:35:49;;;;;;;7.18;3.53;;;18.30;99.90;;;;;;4994867;28;20056;-86
2022/04/13 09:38:16;;;;;;;7.00;2.85;;;18.40;99.90;;;;;;4993299;28;20026;-86
2022/04/13 09:40:42;;;;;;;4.63;2.50;;;18.60;99.90;;;;;;4994307;28;20072;-86
2022/04/13 09:43:13;;;;;;;7.13;2.25;;;18.60;99.90;;;;;;4995761;28;20022;-85
2022/04/13 09:45:42;;;;;;;4.82;0.88;;;18.70;99.90;;;;;;4989922;28;20034;-87
2022/04/13 09:48:19;;;;;;;5.93;2.38;;;18.80;99.90;;;;;;4991038;28;20026;-86
2022/04/13 09:50:45;;;;;;;6.30;2.55;;;18.70;99.20;;;;;;4992329;28;20026;-86
2022/04/13 09:53:13;;;;;;;7.05;3.63;;;18.70;99.40;;;;;;4994730;28;20029;-86
2022/04/13 09:55:41;;;;;;;5.28;2.53;;;18.60;98.90;;;;;;4994058;28;20042;-86
2022/04/13 09:58:32;;;;;;;4.30;1.90;;;18.50;98.70;;;;;;4995730;28;20025;-86
2022/04/13 10:01:02;;;;;;;6.00;2.80;;;18.40;98.80;;;;;;4992984;28;20077;-86
2022/04/13 10:03:28;;;;;;;6.90;2.90;;;18.20;99.00;;;;;;4993748;28;20030;-86
2022/04/13 10:05:58;;;;;;;6.72;2.50;;;18.10;99.40;;;;;;4993481;28;20034;-86
2022/04/13 10:08:26;;;;;;;5.38;3.05;;;18.00;99.50;;;;;;4999138;28;20105;-86
2022/04/13 10:10:59;;;;;;;6.70;3.40;;;17.80;99.90;;;;;;5015403;28;20029;-86
2022/04/13 10:13:34;;;;;;;6.18;3.33;;;17.80;99.90;;;;;;4997706;28;20026;-86
2022/04/13 10:16:03;;;;;;;10.45;3.35;;;17.70;99.90;;;;;;5014862;28;20045;-86
2022/04/13 10:18:31;;;;;;;4.57;2.78;;;17.60;99.90;;;;;;4997880;28;20033;-86
2022/04/13 10:20:56;;;;;;;7.85;3.15;;;17.60;99.90;;;;;;4997118;28;20112;-87
2022/04/13 10:23:22;;;;;;;6.60;3.28;;;17.60;99.90;;;;;;4996855;28;20138;-87
2022/04/13 10:25:48;;;;;;;8.38;4.38;;;17.50;99.90;;;;;;4997807;28;20076;-86
2022/04/13 10:28:21;;;;;;;8.50;5.13;;;17.40;99.90;;;;;;4997534;28;20022;-87
2022/04/13 10:30:48;;;;;;;7.93;3.72;;;17.30;99.90;;;;;;4997279;28;20029;-87
2022/04/13 10:33:14;;;;;;;7.38;3.92;;;17.30;99.90;;;;;;4996792;28;20029;-87
2022/04/13 10:35:42;;;;;;;10.20;4.53;;;17.30;99.90;;;;;;4997140;28;20033;-87
2022/04/13 10:38:09;;;;;;;6.93;3.55;;;17.20;99.90;;;;;;4998314;28;20022;-87
2022/04/13 10:40:36;;;;;;;8.18;4.60;;;17.20;99.90;;;;;;4993272;28;20169;-86
2022/04/13 10:43:04;;;;;;;8.48;4.60;;;17.20;99.90;;;;;;4997054;28;20061;-87
2022/04/13 10:45:30;;;;;;;7.18;4.60;;;17.10;99.90;;;;;;4995683;28;20029;-85
2022/04/13 10:48:08;;;;;;;7.30;4.22;;;17.00;99.90;;;;;;4997406;28;20026;-85
2022/04/13 10:51:16;;;;;;;7.47;4.38;;;17.00;99.90;;;;;;4996991;28;20491;-85
2022/04/13 10:53:52;;;;;;;6.03;4.22;;;16.90;99.90;;;;;;4995878;28;20053;-85
2022/04/13 10:56:20;;;;;;;8.25;4.57;;;17.00;99.90;;;;;;4995265;28;20034;-88
2022/04/13 10:59:00;;;;;;;9.15;4.65;;;17.00;99.90;;;;;;4996296;28;20021;-85
2022/04/13 11:01:31;;;;;;;6.18;4.72;;;17.10;99.90;;;;;;4997978;28;20532;-86
2022/04/13 11:03:58;;;;;;;8.30;5.55;;;17.20;99.90;;;;;;4993255;28;20041;-87
2022/04/13 11:06:24;;;;;;;9.80;5.28;;;17.30;99.90;;;;;;4993754;28;20030;-86
2022/04/13 11:09:09;;;;;;;9.30;5.30;;;17.30;99.90;;;;;;4996544;28;20033;-86
2022/04/13 11:11:36;;;;;;;12.95;5.75;;;17.30;99.90;;;;;;4987989;28;20086;-85
2022/04/13 11:14:19;;;;;;;10.88;6.57;;;17.20;99.90;;;;;;5001197;28;20029;-89
2022/04/13 11:16:45;;;;;;;8.98;5.57;;;17.20;99.90;;;;;;4999625;28;20038;-86
2022/04/13 11:19:10;;;;;;;10.73;6.22;;;17.10;99.90;;;;;;5000604;28;20041;-85
2022/04/13 11:21:51;;;;;;;10.30;6.32;;;17.00;99.90;;;;;;4999166;28;20080;-86
2022/04/13 11:24:45;;;;;;;10.02;6.15;;;16.90;99.90;;;;;;5014806;28;20040;-86
2022/04/13 11:27:11;;;;;;;8.57;4.78;;;16.90;99.90;;;;;;4992826;28;20172;-86
2022/04/13 11:29:42;;;;;;;6.97;4.63;;;16.80;99.90;;;;;;4998177;28;20053;-86
2022/04/13 11:32:16;;;;;;;7.38;4.60;;;16.70;99.90;;;;;;4998301;28;20131;-87
2022/04/13 11:34:57;;;;;;;8.25;4.05;;;16.60;99.90;;;;;;4994565;28;20129;-87
2022/04/13 11:37:24;;;;;;;7.85;3.88;;;16.60;99.90;;;;;;4999355;28;20041;-86
2022/04/13 11:40:03;;;;;;;7.13;3.67;;;16.60;99.90;;;;;;4997626;28;20021;-86
2022/04/13 11:42:48;;;;;;;7.53;3.75;;;16.60;99.90;;;;;;4993205;28;20034;-86
2022/04/13 11:45:15;;;;;;;8.02;3.20;;;16.60;99.90;;;;;;4985174;28;20030;-89
2022/04/13 11:47:53;;;;;;;9.60;4.13;;;16.50;99.90;;;;;;4996234;28;20060;-87
2022/04/13 11:50:21;;;;;;;10.38;3.92;;;16.50;99.90;;;;;;5010291;28;20505;-86
2022/04/13 11:53:13;;;;;;;7.57;3.75;;;16.40;99.90;;;;;;4997714;28;20033;-86
2022/04/13 11:55:44;;;;;;;9.05;3.70;;;16.40;99.90;;;;;;4995984;28;20120;-87
2022/04/13 11:58:14;;;;;;;8.63;3.23;;;16.40;99.90;;;;;;4996055;28;20116;-85
2022/04/13 12:00:59;;;;;;;9.48;3.53;;;16.40;99.90;;;;;;4995396;28;20046;-86
2022/04/13 12:03:43;;;;;;;9.55;3.92;;;16.30;99.90;;;;;;5029228;28;20347;-85
2022/04/13 12:06:23;;;;;;;7.20;4.00;;;16.30;99.90;;;;;;5014595;28;20080;-86
2022/04/13 12:08:54;;;;;;;7.30;4.13;;;16.20;99.90;;;;;;4999306;28;20169;-85
2022/04/13 12:11:41;;;;;;;7.37;3.60;;;16.20;99.90;;;;;;4998717;28;20613;-86
2022/04/13 12:14:09;;;;;;;10.93;4.03;;;16.20;99.90;;;;;;4992448;28;20045;-87
2022/04/13 12:16:39;;;;;;;6.18;4.18;;;16.20;99.90;;;;;;4987468;28;20030;-86
2022/04/13 12:19:10;;;;;;;8.85;3.17;;;16.20;99.90;;;;;;4995654;28;20030;-87
2022/04/13 12:21:38;;;;;;;6.80;3.22;;;16.30;99.90;;;;;;4993981;28;20032;-87
2022/04/13 12:24:11;;;;;;;6.18;2.78;;;16.40;99.90;;;;;;4998544;28;20079;-86
2022/04/13 12:26:45;;;;;;;8.32;2.72;;;16.60;99.90;;;;;;4992443;28;20030;-87
2022/04/13 12:29:14;;;;;;;8.95;3.10;;;16.80;99.90;;;;;;4997005;28;20092;-87
2022/04/13 12:31:51;;;;;;;8.85;2.70;;;16.90;99.90;;;;;;4996007;28;20096;-85
2022/04/13 12:34:18;;;;;;;6.78;2.58;;;17.00;99.90;;;;;;4997711;28;20465;-87
2022/04/13 12:37:01;;;;;;;6.93;2.38;;;16.90;99.90;;;;;;4999736;28;20396;-87
2022/04/13 12:39:32;;;;;;;4.55;2.38;;;16.90;99.90;;;;;;4999714;28;20097;-86
2022/04/13 12:41:59;;;;;;;7.72;2.70;;;16.90;99.90;;;;;;4998519;28;20505;-87